createdAt,value
2023-06-15T00:01:20.062Z,11.30
2023-06-15T00:11:27.116Z,9.80
2023-06-15T00:21:35.465Z,13.20
2023-06-15T00:31:43.177Z,12.80
2023-06-15T00:41:50.130Z,12.40
2023-06-15T00:51:58.538Z,10.80
2023-06-15T01:02:06.273Z,14.10
2023-06-15T01:12:16.150Z,11.30
2023-06-15T01:22:36.316Z,17.50
2023-06-15T01:32:43.848Z,20.90
2023-06-15T01:42:52.776Z,13.70
2023-06-15T01:52:59.977Z,16.00
2023-06-15T02:03:07.546Z,18.40
2023-06-15T02:13:14.686Z,16.70
2023-06-15T02:23:21.074Z,19.10
2023-06-15T02:33:28.775Z,15.40
2023-06-15T02:43:36.271Z,21.70
2023-06-15T02:53:45.040Z,18.80
2023-06-15T03:03:53.236Z,19.60
2023-06-15T03:14:00.174Z,21.50
2023-06-15T03:24:09.634Z,19.30
2023-06-15T03:34:16.159Z,17.70
2023-06-15T03:44:21.142Z,19.70
2023-06-15T03:54:28.184Z,16.70
2023-06-15T04:04:35.310Z,15.60
2023-06-15T04:14:43.490Z,14.60
2023-06-15T04:24:52.806Z,16.50
2023-06-15T04:45:07.463Z,16.10
2023-06-15T04:55:14.887Z,16.90
2023-06-15T05:05:23.134Z,21.00
2023-06-15T05:15:30.475Z,22.70
2023-06-15T05:25:37.512Z,21.20
2023-06-15T05:35:44.680Z,18.90
2023-06-15T05:45:50.963Z,15.30
2023-06-15T06:06:11.086Z,14.30
2023-06-15T06:16:18.285Z,13.50
2023-06-15T06:26:25.620Z,12.10
2023-06-15T06:36:32.922Z,14.00
2023-06-15T06:46:40.315Z,11.40
2023-06-15T06:56:45.804Z,17.00
2023-06-15T07:06:53.030Z,13.20
2023-06-15T07:17:00.285Z,12.70
2023-06-15T07:27:06.935Z,15.00
2023-06-15T07:37:14.071Z,16.00
2023-06-15T07:47:21.326Z,13.50
2023-06-15T07:57:27.781Z,12.40
2023-06-15T08:07:34.083Z,10.60
2023-06-15T08:17:41.961Z,11.00
2023-06-15T08:27:49.180Z,9.00
2023-06-15T08:37:56.442Z,10.10
2023-06-15T08:48:07.689Z,4.60
2023-06-15T08:58:16.198Z,8.40
2023-06-15T09:08:24.051Z,6.10
2023-06-15T09:28:45.822Z,4.80
2023-06-15T09:38:54.265Z,4.50
2023-06-15T09:49:01.279Z,9.70
2023-06-15T09:59:08.581Z,6.10
2023-06-15T10:09:17.789Z,11.00
2023-06-15T10:19:23.216Z,7.50
2023-06-15T10:29:33.046Z,8.50
2023-06-15T10:39:43.546Z,7.90
2023-06-15T10:49:57.329Z,7.60
2023-06-15T11:00:04.502Z,9.60
2023-06-15T11:10:12.484Z,7.70
2023-06-15T11:20:50.484Z,6.40
2023-06-15T11:31:00.088Z,6.50
2023-06-15T11:41:09.543Z,6.60
2023-06-15T11:51:18.700Z,7.40
2023-06-15T12:01:29.458Z,6.80
2023-06-15T12:11:39.869Z,7.20
2023-06-15T12:21:48.601Z,8.60
2023-06-15T12:31:57.890Z,7.80
2023-06-15T12:42:04.204Z,5.90
2023-06-15T12:52:10.990Z,10.50
2023-06-15T13:02:18.283Z,6.90
2023-06-15T13:12:26.447Z,7.20
2023-06-15T13:22:34.283Z,6.80
2023-06-15T13:32:44.496Z,7.90
2023-06-15T13:52:59.393Z,10.90
2023-06-15T14:03:07.590Z,10.90
2023-06-15T14:13:17.875Z,8.80
2023-06-15T14:23:25.920Z,6.90
2023-06-15T14:33:33.174Z,5.40
2023-06-15T14:43:40.910Z,6.30
2023-06-15T15:03:52.383Z,5.70
2023-06-15T15:14:02.417Z,6.00
2023-06-15T15:24:06.331Z,6.60
2023-06-15T15:34:13.635Z,6.70
2023-06-15T15:44:20.712Z,7.60
2023-06-15T15:54:28.144Z,5.30
2023-06-15T16:14:42.624Z,4.40
2023-06-15T16:24:53.147Z,6.90
2023-06-15T16:35:00.447Z,3.50
2023-06-15T16:45:07.920Z,5.10
2023-06-15T16:55:13.931Z,8.30
2023-06-15T17:05:20.454Z,6.00
2023-06-15T17:15:27.412Z,4.70
2023-06-15T17:25:35.273Z,7.40
2023-06-15T17:35:42.653Z,4.40
2023-06-15T17:45:49.912Z,4.20
2023-06-15T17:56:01.663Z,9.30
2023-06-15T18:06:10.124Z,4.70
2023-06-15T18:16:19.285Z,4.50
2023-06-15T18:26:26.905Z,4.60
2023-06-15T18:36:34.341Z,8.30
2023-06-15T18:46:41.944Z,4.80
2023-06-15T18:56:48.643Z,13.30
2023-06-15T19:06:55.991Z,5.60
2023-06-15T19:17:03.174Z,9.00
2023-06-15T19:27:11.484Z,12.50
2023-06-15T19:37:18.792Z,12.00
2023-06-15T19:47:26.099Z,13.60
2023-06-15T19:57:33.172Z,10.90
2023-06-15T20:07:40.529Z,10.00
2023-06-15T20:17:47.732Z,12.30
2023-06-15T20:27:55.543Z,15.60
2023-06-15T20:38:02.749Z,10.90
2023-06-15T20:48:10.235Z,16.90
2023-06-15T20:58:17.961Z,24.50
2023-06-15T21:08:25.363Z,22.80
2023-06-15T21:18:31.870Z,24.10
2023-06-15T21:28:39.173Z,19.50
2023-06-15T21:38:45.003Z,19.70
2023-06-15T21:48:52.222Z,21.50
2023-06-15T21:58:59.611Z,22.50
2023-06-15T22:09:08.732Z,22.00
2023-06-15T22:19:16.130Z,25.00
2023-06-15T22:29:23.421Z,19.00
2023-06-15T22:39:29.445Z,18.30
2023-06-15T22:49:40.464Z,24.70
2023-06-15T22:59:47.904Z,25.40
2023-06-15T23:09:55.325Z,27.80
2023-06-15T23:20:06.164Z,30.90
2023-06-15T23:30:14.630Z,33.60
2023-06-15T23:40:21.711Z,34.30
2023-06-15T23:50:28.952Z,29.40
